createdAt,value
2019-03-05T00:00:46.794Z,0
2019-03-05T00:01:49.582Z,0
2019-03-05T00:02:51.751Z,0
2019-03-05T00:03:53.864Z,0
2019-03-05T00:04:55.996Z,0
2019-03-05T00:05:58.148Z,0
2019-03-05T00:07:00.270Z,0
2019-03-05T00:08:02.377Z,0
2019-03-05T00:09:04.516Z,0
2019-03-05T00:10:06.929Z,0
2019-03-05T00:11:09.037Z,0
2019-03-05T00:12:11.170Z,0
2019-03-05T00:13:13.283Z,0
2019-03-05T00:14:15.686Z,0
2019-03-05T00:15:20.751Z,0
2019-03-05T00:16:22.880Z,0
2019-03-05T00:17:24.983Z,0
2019-03-05T00:18:27.518Z,0
2019-03-05T00:19:29.944Z,0
2019-03-05T00:20:32.348Z,0
2019-03-05T00:21:34.494Z,0
2019-03-05T00:22:36.635Z,0
2019-03-05T00:23:39.039Z,0
2019-03-05T00:24:41.149Z,0
2019-03-05T00:25:43.569Z,0
2019-03-05T00:26:46.072Z,0
2019-03-05T00:27:48.193Z,0
2019-03-05T00:28:50.303Z,0
2019-03-05T00:29:52.437Z,0
2019-03-05T00:30:54.561Z,0
2019-03-05T00:31:56.773Z,0
2019-03-05T00:32:58.908Z,0
2019-03-05T00:34:01.310Z,0
2019-03-05T00:35:03.715Z,0
2019-03-05T00:36:05.861Z,0
2019-03-05T00:37:07.972Z,0
2019-03-05T00:38:10.098Z,0
2019-03-05T00:39:12.630Z,0
2019-03-05T00:40:14.754Z,0
2019-03-05T00:41:16.854Z,0
2019-03-05T00:42:19.008Z,0
2019-03-05T00:43:21.526Z,0
2019-03-05T00:44:24.034Z,0
2019-03-05T00:45:26.226Z,0
2019-03-05T00:46:28.617Z,0
2019-03-05T00:47:30.741Z,0
2019-03-05T00:48:32.881Z,0
2019-03-05T00:49:35.017Z,0
2019-03-05T00:50:37.120Z,0
2019-03-05T00:51:39.625Z,0
2019-03-05T00:52:41.745Z,0
2019-03-05T00:53:43.857Z,0
2019-03-05T00:54:45.993Z,0
2019-03-05T00:55:49.849Z,0
2019-03-05T00:56:52.300Z,0
2019-03-05T00:57:54.423Z,0
2019-03-05T00:58:56.967Z,0
2019-03-05T00:59:59.355Z,0
2019-03-05T01:01:01.714Z,0
2019-03-05T01:02:04.218Z,0
2019-03-05T01:03:06.321Z,0
2019-03-05T01:04:08.745Z,0
2019-03-05T01:05:10.874Z,0
2019-03-05T01:06:12.975Z,0
2019-03-05T01:07:15.094Z,0
2019-03-05T01:08:19.559Z,0
2019-03-05T01:09:22.196Z,0
2019-03-05T01:10:24.329Z,0
2019-03-05T01:11:26.451Z,0
2019-03-05T01:12:28.951Z,0
2019-03-05T01:13:31.547Z,0
2019-03-05T01:14:33.673Z,0
2019-03-05T01:15:36.060Z,0
2019-03-05T01:16:38.183Z,0
2019-03-05T01:17:40.591Z,0
2019-03-05T01:18:42.697Z,0
2019-03-05T01:19:44.824Z,0
2019-03-05T01:20:46.935Z,0
2019-03-05T01:21:49.046Z,0
2019-03-05T01:22:51.158Z,0
2019-03-05T01:23:53.296Z,0
2019-03-05T01:24:55.399Z,0
2019-03-05T01:25:57.883Z,0
2019-03-05T01:27:00.040Z,0
2019-03-05T01:28:02.139Z,0
2019-03-05T01:29:04.262Z,0
2019-03-05T01:30:06.441Z,0
2019-03-05T01:31:08.555Z,0
2019-03-05T01:32:10.651Z,0
2019-03-05T01:33:13.081Z,0
2019-03-05T01:34:15.242Z,0
2019-03-05T01:35:17.358Z,0
2019-03-05T01:36:19.493Z,0
2019-03-05T01:37:21.662Z,0
2019-03-05T01:38:23.783Z,0
2019-03-05T01:39:25.914Z,0
2019-03-05T01:40:28.313Z,0
2019-03-05T01:41:30.700Z,0
2019-03-05T01:42:32.821Z,0
2019-03-05T01:43:35.017Z,0
2019-03-05T01:44:37.194Z,0
2019-03-05T01:45:39.299Z,0
2019-03-05T01:46:41.457Z,0
2019-03-05T01:47:43.582Z,0
2019-03-05T01:48:45.680Z,0
2019-03-05T01:49:47.810Z,0
2019-03-05T01:50:49.930Z,0
2019-03-05T01:51:52.036Z,0
2019-03-05T01:52:54.257Z,0
2019-03-05T01:53:56.364Z,0
2019-03-05T01:54:58.478Z,0
2019-03-05T01:56:00.580Z,0
2019-03-05T01:57:03.839Z,0
2019-03-05T01:58:06.248Z,0
2019-03-05T01:59:08.663Z,0
2019-03-05T02:00:11.761Z,0
2019-03-05T02:01:14.110Z,0
2019-03-05T02:02:16.236Z,0
2019-03-05T02:03:18.352Z,0
2019-03-05T02:04:20.575Z,0
2019-03-05T02:05:22.669Z,0
2019-03-05T02:06:24.881Z,0
2019-03-05T02:07:26.996Z,0
2019-03-05T02:08:29.116Z,0
2019-03-05T02:09:31.253Z,0
2019-03-05T02:10:33.367Z,0
2019-03-05T02:11:35.879Z,0
2019-03-05T02:12:38.003Z,0
2019-03-05T02:13:40.113Z,0
2019-03-05T02:14:42.212Z,0
2019-03-05T02:15:44.617Z,0
2019-03-05T02:16:47.020Z,0
2019-03-05T02:17:49.132Z,0
2019-03-05T02:18:51.645Z,0
2019-03-05T02:19:53.754Z,0
2019-03-05T02:20:55.875Z,0
2019-03-05T02:21:58.002Z,0
2019-03-05T02:23:00.107Z,0
2019-03-05T02:24:02.523Z,0
2019-03-05T02:25:04.704Z,0
2019-03-05T02:26:06.886Z,0
2019-03-05T02:27:09.002Z,0
2019-03-05T02:28:11.120Z,0
2019-03-05T02:29:13.530Z,0
2019-03-05T02:30:15.625Z,0
2019-03-05T02:31:18.868Z,0
2019-03-05T02:32:21.301Z,0
2019-03-05T02:33:23.701Z,0
2019-03-05T02:34:25.887Z,0
2019-03-05T02:35:28.315Z,0
2019-03-05T02:36:30.449Z,0
2019-03-05T02:37:32.974Z,0
2019-03-05T02:38:35.139Z,0
2019-03-05T02:39:37.294Z,0
2019-03-05T02:40:39.726Z,0
2019-03-05T02:41:42.266Z,0
2019-03-05T02:42:44.386Z,0
2019-03-05T02:43:46.545Z,0
2019-03-05T02:44:49.268Z,0
2019-03-05T02:45:51.680Z,0
2019-03-05T02:46:53.822Z,0
2019-03-05T02:47:55.957Z,0
2019-03-05T02:48:58.647Z,0
2019-03-05T02:50:00.787Z,0
2019-03-05T02:51:03.650Z,0
2019-03-05T02:52:06.345Z,0
2019-03-05T02:53:09.044Z,0
2019-03-05T02:54:11.467Z,0
2019-03-05T02:55:14.304Z,0
2019-03-05T02:56:17.157Z,0
2019-03-05T02:57:19.303Z,0
2019-03-05T02:58:22.695Z,0
2019-03-05T02:59:24.814Z,0
2019-03-05T03:00:27.407Z,0
2019-03-05T03:01:29.825Z,0
2019-03-05T03:02:32.340Z,0
2019-03-05T03:03:34.753Z,0
2019-03-05T03:04:36.909Z,0
2019-03-05T03:05:39.417Z,0
2019-03-05T03:06:41.551Z,0
2019-03-05T03:07:44.149Z,0
2019-03-05T03:08:46.642Z,0
2019-03-05T03:09:49.465Z,0
2019-03-05T03:10:51.600Z,0
2019-03-05T03:11:54.131Z,0
2019-03-05T03:12:56.576Z,0
2019-03-05T03:13:58.715Z,0
2019-03-05T03:15:00.853Z,0
2019-03-05T03:16:03.018Z,0
2019-03-05T03:17:05.457Z,0
2019-03-05T03:18:07.585Z,0
2019-03-05T03:19:09.759Z,0
2019-03-05T03:20:11.879Z,0
2019-03-05T03:21:14.337Z,0
2019-03-05T03:22:16.781Z,0
2019-03-05T03:23:19.671Z,0
2019-03-05T03:24:22.090Z,0
2019-03-05T03:25:24.484Z,0
2019-03-05T03:26:26.627Z,0
2019-03-05T03:27:28.753Z,0
2019-03-05T03:28:31.165Z,0
2019-03-05T03:29:33.584Z,0
2019-03-05T03:30:36.386Z,0
2019-03-05T03:31:39.188Z,0
2019-03-05T03:32:41.351Z,0
2019-03-05T03:33:44.858Z,0
2019-03-05T03:34:47.700Z,0
2019-03-05T03:35:50.163Z,0
2019-03-05T03:36:52.285Z,0
2019-03-05T03:37:54.707Z,0
2019-03-05T03:38:57.528Z,0
2019-03-05T03:39:59.652Z,0
2019-03-05T03:41:02.835Z,0
2019-03-05T03:42:05.264Z,0
2019-03-05T03:43:07.719Z,0
2019-03-05T03:44:09.837Z,0
2019-03-05T03:45:12.000Z,0
2019-03-05T03:46:14.432Z,0
2019-03-05T03:47:16.605Z,0
2019-03-05T03:48:18.772Z,0
2019-03-05T03:49:21.182Z,0
2019-03-05T03:50:23.329Z,0
2019-03-05T03:51:25.472Z,0
2019-03-05T03:52:27.883Z,0
2019-03-05T03:53:30.301Z,0
2019-03-05T03:54:32.440Z,0
2019-03-05T03:55:35.200Z,0
2019-03-05T03:56:37.972Z,0
2019-03-05T03:57:40.090Z,0
2019-03-05T03:58:42.506Z,0
2019-03-05T03:59:44.934Z,0
2019-03-05T04:00:47.344Z,0
2019-03-05T04:01:49.453Z,0
2019-03-05T04:02:51.662Z,0
2019-03-05T04:03:53.813Z,0
2019-03-05T04:04:55.949Z,0
2019-03-05T04:05:58.365Z,0
2019-03-05T04:07:00.567Z,0
2019-03-05T04:08:02.697Z,0
2019-03-05T04:09:05.228Z,0
2019-03-05T04:10:08.085Z,0
2019-03-05T04:11:10.623Z,0
2019-03-05T04:12:12.766Z,0
2019-03-05T04:13:15.295Z,0
2019-03-05T04:14:18.133Z,0
2019-03-05T04:15:20.256Z,0
2019-03-05T04:16:23.561Z,0
2019-03-05T04:17:26.455Z,0
2019-03-05T04:18:28.613Z,0
2019-03-05T04:19:31.536Z,0
2019-03-05T04:20:33.693Z,0
2019-03-05T04:21:35.836Z,0
2019-03-05T04:22:38.304Z,0
2019-03-05T04:23:40.844Z,0
2019-03-05T04:24:43.646Z,0
2019-03-05T04:25:46.048Z,0
2019-03-05T04:26:48.447Z,0
2019-03-05T04:27:50.571Z,0
2019-03-05T04:28:52.694Z,0
2019-03-05T04:29:54.825Z,0
2019-03-05T04:30:56.949Z,0
2019-03-05T04:31:59.070Z,0
2019-03-05T04:33:01.484Z,0
2019-03-05T04:34:04.593Z,0
2019-03-05T04:35:07.535Z,0
2019-03-05T04:36:09.651Z,0
2019-03-05T04:37:11.759Z,0
2019-03-05T04:38:13.869Z,0
2019-03-05T04:39:16.015Z,0
2019-03-05T04:40:18.150Z,0
2019-03-05T04:41:20.277Z,0
2019-03-05T04:42:22.381Z,0
2019-03-05T04:43:24.521Z,0
2019-03-05T04:44:26.620Z,0
2019-03-05T04:45:28.738Z,0
2019-03-05T04:46:31.253Z,0
2019-03-05T04:47:33.366Z,0
2019-03-05T04:48:35.880Z,0
2019-03-05T04:49:38.001Z,0
2019-03-05T04:50:40.127Z,0
2019-03-05T04:51:42.231Z,0
2019-03-05T04:52:44.654Z,0
2019-03-05T04:53:46.770Z,0
2019-03-05T04:54:48.883Z,0
2019-03-05T04:55:51.022Z,0
2019-03-05T04:56:53.124Z,0
2019-03-05T04:57:55.250Z,0
2019-03-05T04:58:57.663Z,0
2019-03-05T05:00:00.095Z,0
2019-03-05T05:01:02.394Z,0
2019-03-05T05:02:04.820Z,0
2019-03-05T05:03:07.511Z,0
2019-03-05T05:04:10.221Z,0
2019-03-05T05:05:12.742Z,0
2019-03-05T05:06:15.140Z,0
2019-03-05T05:07:17.242Z,0
2019-03-05T05:08:19.764Z,0
2019-03-05T05:09:21.883Z,0
2019-03-05T05:10:23.996Z,0
2019-03-05T05:11:26.126Z,0
2019-03-05T05:12:28.227Z,0
2019-03-05T05:13:30.361Z,0
2019-03-05T05:14:32.481Z,0
2019-03-05T05:15:34.921Z,0
2019-03-05T05:16:37.458Z,0
2019-03-05T05:17:39.583Z,0
2019-03-05T05:18:41.999Z,0
2019-03-05T05:19:44.494Z,0
2019-03-05T05:20:46.628Z,0
2019-03-05T05:21:49.020Z,4
2019-03-05T05:22:51.143Z,4
2019-03-05T05:23:53.305Z,0
2019-03-05T05:24:55.430Z,4
2019-03-05T05:25:57.530Z,4
2019-03-05T05:26:59.655Z,8
2019-03-05T05:28:01.770Z,8
2019-03-05T05:29:04.157Z,4
2019-03-05T05:30:06.289Z,4
2019-03-05T05:31:08.401Z,4
2019-03-05T05:32:10.605Z,4
2019-03-05T05:33:13.120Z,12
2019-03-05T05:34:15.814Z,12
2019-03-05T05:35:17.959Z,12
2019-03-05T05:36:20.062Z,12
2019-03-05T05:37:22.526Z,12
2019-03-05T05:38:24.656Z,16
2019-03-05T05:39:26.768Z,20
2019-03-05T05:40:28.881Z,24
2019-03-05T05:41:31.310Z,28
2019-03-05T05:42:33.421Z,36
2019-03-05T05:43:35.837Z,36
2019-03-05T05:44:37.957Z,52
2019-03-05T05:45:40.338Z,48
2019-03-05T05:46:42.460Z,56
2019-03-05T05:47:44.587Z,64
2019-03-05T05:48:46.713Z,80
2019-03-05T05:49:48.814Z,96
2019-03-05T05:50:51.219Z,88
2019-03-05T05:51:53.334Z,100
2019-03-05T05:52:55.438Z,136
2019-03-05T05:53:57.863Z,196
2019-03-05T05:54:59.969Z,232
2019-03-05T05:56:02.713Z,264
2019-03-05T05:57:04.844Z,304
2019-03-05T05:58:06.990Z,348
2019-03-05T05:59:09.094Z,328
2019-03-05T06:00:11.231Z,308
2019-03-05T06:01:13.359Z,288
2019-03-05T06:02:15.465Z,372
2019-03-05T06:03:17.598Z,416
2019-03-05T06:04:19.735Z,496
2019-03-05T06:05:22.120Z,568
2019-03-05T06:06:24.250Z,656
2019-03-05T06:07:26.371Z,720
2019-03-05T06:08:28.502Z,780
2019-03-05T06:09:31.002Z,840
2019-03-05T06:10:33.406Z,900
2019-03-05T06:11:35.530Z,1008
2019-03-05T06:12:37.657Z,1168
2019-03-05T06:13:39.762Z,1156
2019-03-05T06:14:41.901Z,1140
2019-03-05T06:15:44.017Z,1224
2019-03-05T06:16:46.142Z,1148
2019-03-05T06:17:48.550Z,1176
2019-03-05T06:18:50.954Z,1104
2019-03-05T06:19:53.083Z,900
2019-03-05T06:20:55.200Z,940
2019-03-05T06:21:57.336Z,1060
2019-03-05T06:22:59.437Z,992
2019-03-05T06:24:01.572Z,968
2019-03-05T06:25:04.065Z,824
2019-03-05T06:26:08.657Z,696
2019-03-05T06:27:11.672Z,748
2019-03-05T06:28:14.089Z,692
2019-03-05T06:29:16.209Z,768
2019-03-05T06:30:18.326Z,764
2019-03-05T06:31:20.500Z,832
2019-03-05T06:32:22.608Z,1064
2019-03-05T06:33:24.741Z,1360
2019-03-05T06:34:26.853Z,1624
2019-03-05T06:35:29.271Z,1740
2019-03-05T06:36:31.790Z,1816
2019-03-05T06:37:34.216Z,1976
2019-03-05T06:38:36.333Z,2680
2019-03-05T06:39:38.836Z,2004
2019-03-05T06:40:40.968Z,2892
2019-03-05T06:41:43.164Z,2724
2019-03-05T06:42:45.292Z,2656
2019-03-05T06:43:47.689Z,2760
2019-03-05T06:44:49.793Z,3068
2019-03-05T06:45:52.316Z,3332
2019-03-05T06:46:54.505Z,2156
2019-03-05T06:47:56.644Z,1748
2019-03-05T06:48:58.755Z,1748
2019-03-05T06:50:00.920Z,1792
2019-03-05T06:51:03.132Z,1816
2019-03-05T06:52:05.249Z,2080
2019-03-05T06:53:07.370Z,1952
2019-03-05T06:54:09.505Z,1716
2019-03-05T06:55:11.683Z,1532
2019-03-05T06:56:13.792Z,1600
2019-03-05T06:57:15.940Z,2264
2019-03-05T06:58:18.063Z,3180
2019-03-05T06:59:20.167Z,4208
2019-03-05T07:00:22.297Z,3568
2019-03-05T07:01:24.687Z,3532
2019-03-05T07:02:26.807Z,3424
2019-03-05T07:03:28.919Z,3868
2019-03-05T07:04:31.050Z,3824
2019-03-05T07:05:33.170Z,3788
2019-03-05T07:06:35.298Z,4292
2019-03-05T07:07:37.436Z,4480
2019-03-05T07:08:39.540Z,4332
2019-03-05T07:09:41.955Z,5028
2019-03-05T07:10:44.084Z,6156
2019-03-05T07:11:46.580Z,7572
2019-03-05T07:12:48.702Z,9104
2019-03-05T07:13:50.822Z,8628
2019-03-05T07:14:52.929Z,8080
2019-03-05T07:15:55.100Z,8688
2019-03-05T07:16:57.205Z,9960
2019-03-05T07:17:59.305Z,8860
2019-03-05T07:19:01.727Z,6652
2019-03-05T07:20:03.867Z,5108
2019-03-05T07:21:06.618Z,2700
2019-03-05T07:22:08.750Z,2732
2019-03-05T07:23:11.167Z,3112
2019-03-05T07:24:13.279Z,3792
2019-03-05T07:25:15.419Z,5160
2019-03-05T07:26:17.532Z,5204
2019-03-05T07:27:19.705Z,4064
2019-03-05T07:28:22.125Z,3772
2019-03-05T07:29:24.837Z,3796
2019-03-05T07:30:26.960Z,4208
2019-03-05T07:31:29.079Z,4644
2019-03-05T07:32:31.211Z,3872
2019-03-05T07:33:33.316Z,4592
2019-03-05T07:34:36.112Z,4748
2019-03-05T07:35:38.232Z,4820
2019-03-05T07:36:40.349Z,4220
2019-03-05T07:37:42.452Z,4676
2019-03-05T07:38:44.585Z,4996
2019-03-05T07:39:46.693Z,4052
2019-03-05T07:40:49.107Z,4076
2019-03-05T07:41:51.312Z,5248
2019-03-05T07:42:53.431Z,7332
2019-03-05T07:43:55.573Z,8544
2019-03-05T07:44:57.708Z,13716
2019-03-05T07:46:00.215Z,12492
2019-03-05T07:47:02.329Z,18688
2019-03-05T07:48:05.024Z,13108
2019-03-05T07:49:07.418Z,17024
2019-03-05T07:50:09.539Z,10804
2019-03-05T07:51:11.681Z,8420
2019-03-05T07:52:13.836Z,6312
2019-03-05T07:53:15.946Z,4708
2019-03-05T07:54:18.554Z,4712
2019-03-05T07:55:20.678Z,4880
2019-03-05T07:56:22.787Z,6084
2019-03-05T07:57:24.910Z,6240
2019-03-05T07:58:27.004Z,5464
2019-03-05T07:59:29.125Z,5160
2019-03-05T08:00:31.536Z,4752
2019-03-05T08:01:33.670Z,5464
2019-03-05T08:02:35.790Z,6296
2019-03-05T08:03:37.905Z,5136
2019-03-05T08:04:40.026Z,6608
2019-03-05T08:05:42.155Z,8712
2019-03-05T08:06:44.607Z,9044
2019-03-05T08:07:46.741Z,7436
2019-03-05T08:08:48.864Z,5100
2019-03-05T08:09:50.982Z,6972
2019-03-05T08:10:53.088Z,9724
2019-03-05T08:11:55.610Z,8092
2019-03-05T08:12:57.716Z,9260
2019-03-05T08:14:00.142Z,6868
2019-03-05T08:15:02.369Z,8756
2019-03-05T08:16:05.089Z,7156
2019-03-05T08:17:07.209Z,5052
2019-03-05T08:18:09.431Z,7508
2019-03-05T08:19:11.945Z,5632
2019-03-05T08:20:14.057Z,5968
2019-03-05T08:21:16.187Z,5396
2019-03-05T08:22:18.576Z,5188
2019-03-05T08:23:20.704Z,5576
2019-03-05T08:24:22.834Z,7228
2019-03-05T08:25:24.951Z,8616
2019-03-05T08:26:27.061Z,11664
2019-03-05T08:27:29.216Z,13500
2019-03-05T08:28:31.612Z,10236
2019-03-05T08:29:33.722Z,7968
2019-03-05T08:30:35.845Z,6984
2019-03-05T08:31:37.951Z,9004
2019-03-05T08:32:40.739Z,12924
2019-03-05T08:33:42.865Z,26368
2019-03-05T08:34:45.002Z,35040
2019-03-05T08:35:47.110Z,27712
2019-03-05T08:36:49.256Z,15932
2019-03-05T08:37:51.411Z,26304
2019-03-05T08:38:53.521Z,33632
2019-03-05T08:39:55.639Z,22112
2019-03-05T08:40:57.772Z,28000
2019-03-05T08:41:59.892Z,19936
2019-03-05T08:43:02.017Z,58400
2019-03-05T08:44:04.123Z,58464
2019-03-05T08:45:06.286Z,64736
2019-03-05T08:46:08.393Z,49120
2019-03-05T08:47:10.506Z,25184
2019-03-05T08:48:12.646Z,37312
2019-03-05T08:49:17.667Z,49728
2019-03-05T08:50:20.338Z,21664
2019-03-05T08:51:22.476Z,62048
2019-03-05T08:52:24.620Z,58464
2019-03-05T08:53:26.729Z,31136
2019-03-05T08:54:28.858Z,27776
2019-03-05T08:55:30.986Z,22336
2019-03-05T08:56:33.698Z,18016
2019-03-05T08:57:35.827Z,53696
2019-03-05T08:58:37.940Z,18400
2019-03-05T08:59:40.053Z,26880
2019-03-05T09:00:42.193Z,16424
2019-03-05T09:01:44.313Z,19776
2019-03-05T09:02:48.778Z,23648
2019-03-05T09:03:51.484Z,19744
2019-03-05T09:04:53.594Z,62144
2019-03-05T09:05:56.119Z,17164
2019-03-05T09:06:58.237Z,21696
2019-03-05T09:08:00.374Z,23872
2019-03-05T09:09:02.483Z,20512
2019-03-05T09:10:04.615Z,20608
2019-03-05T09:11:07.032Z,22880
2019-03-05T09:12:09.534Z,70080
2019-03-05T09:13:11.678Z,21952
2019-03-05T09:14:14.390Z,15584
2019-03-05T09:15:16.549Z,19264
2019-03-05T09:16:18.685Z,32800
2019-03-05T09:17:20.840Z,10524
2019-03-05T09:18:23.005Z,9580
2019-03-05T09:19:25.258Z,9148
2019-03-05T09:20:27.699Z,13080
2019-03-05T09:21:30.163Z,14112
2019-03-05T09:22:32.688Z,13108
2019-03-05T09:23:35.323Z,12116
2019-03-05T09:24:37.488Z,13056
2019-03-05T09:25:39.605Z,18048
2019-03-05T09:26:50.653Z,11688
2019-03-05T09:27:55.339Z,13028
2019-03-05T09:28:57.555Z,17500
2019-03-05T09:29:59.689Z,20416
2019-03-05T09:31:01.983Z,13692
2019-03-05T09:32:04.519Z,16164
2019-03-05T09:33:06.808Z,17856
2019-03-05T09:34:09.450Z,20544
2019-03-05T09:35:11.640Z,38112
2019-03-05T09:36:13.753Z,27584
2019-03-05T09:37:16.478Z,41824
2019-03-05T09:38:19.256Z,23168
2019-03-05T09:39:21.386Z,24864
2019-03-05T09:40:23.503Z,44352
2019-03-05T09:41:25.923Z,30464
2019-03-05T09:42:28.037Z,18112
2019-03-05T09:43:42.039Z,16764
2019-03-05T09:44:44.170Z,14016
2019-03-05T09:45:46.279Z,10180
2019-03-05T09:46:48.423Z,9464
2019-03-05T09:47:50.838Z,9588
2019-03-05T09:48:52.964Z,9152
2019-03-05T09:49:55.366Z,8976
2019-03-05T09:50:57.503Z,8560
2019-03-05T09:51:59.621Z,7476
2019-03-05T09:53:01.745Z,7336
2019-03-05T09:54:03.887Z,9280
2019-03-05T09:55:06.271Z,10240
2019-03-05T09:56:08.414Z,10896
2019-03-05T09:57:10.549Z,6744
2019-03-05T09:58:12.664Z,7520
2019-03-05T09:59:14.794Z,8676
2019-03-05T10:00:17.232Z,7088
2019-03-05T10:01:19.346Z,6504
2019-03-05T10:02:21.476Z,6784
2019-03-05T10:03:23.601Z,7832
2019-03-05T10:04:26.020Z,7056
2019-03-05T10:05:28.175Z,6432
2019-03-05T10:06:30.316Z,6812
2019-03-05T10:07:32.758Z,7460
2019-03-05T10:08:34.890Z,5984
2019-03-05T10:09:37.090Z,7812
2019-03-05T10:10:39.611Z,6780
2019-03-05T10:11:41.748Z,4616
2019-03-05T10:12:43.862Z,4032
2019-03-05T10:13:45.978Z,5532
2019-03-05T10:14:48.095Z,5284
2019-03-05T10:15:50.317Z,6172
2019-03-05T10:16:55.149Z,6576
2019-03-05T10:17:57.280Z,6584
2019-03-05T10:18:59.426Z,8876
2019-03-05T10:20:01.537Z,8960
2019-03-05T10:21:04.115Z,6388
2019-03-05T10:22:06.544Z,6696
2019-03-05T10:23:08.686Z,10760
2019-03-05T10:24:11.133Z,9520
2019-03-05T10:25:13.323Z,6952
2019-03-05T10:26:15.453Z,6872
2019-03-05T10:27:20.777Z,7632
2019-03-05T10:28:22.960Z,6584
2019-03-05T10:29:25.075Z,6732
2019-03-05T10:30:27.272Z,6416
2019-03-05T10:31:29.410Z,5228
2019-03-05T10:32:34.143Z,5556
2019-03-05T10:33:36.274Z,5556
2019-03-05T10:34:38.452Z,6248
2019-03-05T10:35:41.026Z,6704
2019-03-05T10:36:43.160Z,6508
2019-03-05T10:37:45.553Z,7120
2019-03-05T10:38:56.791Z,8264
2019-03-05T10:40:00.095Z,8336
2019-03-05T10:41:02.213Z,7312
2019-03-05T10:42:04.634Z,11072
2019-03-05T10:43:08.627Z,11816
2019-03-05T10:44:11.197Z,15684
2019-03-05T10:45:13.337Z,27776
2019-03-05T10:46:15.732Z,23872
2019-03-05T10:47:17.851Z,22624
2019-03-05T10:48:19.955Z,19168
2019-03-05T10:49:22.096Z,15552
2019-03-05T10:50:24.210Z,15928
2019-03-05T10:51:26.736Z,17544
2019-03-05T10:52:28.885Z,14160
2019-03-05T10:53:31.284Z,14136
2019-03-05T10:54:33.422Z,17704
2019-03-05T10:55:35.840Z,24864
2019-03-05T10:56:37.988Z,64256
2019-03-05T10:57:40.397Z,25792
2019-03-05T10:58:45.261Z,24512
2019-03-05T10:59:47.679Z,20288
2019-03-05T11:00:49.799Z,17040
2019-03-05T11:01:51.934Z,19104
2019-03-05T11:02:54.050Z,16820
2019-03-05T11:03:56.205Z,16568
2019-03-05T11:04:58.385Z,16340
2019-03-05T11:06:00.558Z,15264
2019-03-05T11:07:03.055Z,16088
2019-03-05T11:08:05.189Z,19776
2019-03-05T11:09:07.576Z,20384
2019-03-05T11:10:09.702Z,46592
2019-03-05T11:11:13.709Z,20064
2019-03-05T11:12:16.661Z,12388
2019-03-05T11:13:19.175Z,14788
2019-03-05T11:14:21.395Z,17752
2019-03-05T11:15:23.521Z,16408
2019-03-05T11:16:30.579Z,15560
2019-03-05T11:17:33.294Z,19712
2019-03-05T11:18:35.806Z,14708
2019-03-05T11:19:38.033Z,11160
2019-03-05T11:20:40.170Z,8056
2019-03-05T11:21:42.684Z,6748
2019-03-05T11:22:45.343Z,7196
2019-03-05T11:23:47.501Z,6708
2019-03-05T11:24:49.702Z,5944
2019-03-05T11:25:51.825Z,6092
2019-03-05T11:26:54.382Z,6620
2019-03-05T11:27:56.490Z,9732
2019-03-05T11:28:58.622Z,17344
2019-03-05T11:30:00.746Z,17452
2019-03-05T11:31:03.174Z,13320
2019-03-05T11:32:05.679Z,9872
2019-03-05T11:33:08.092Z,6696
2019-03-05T11:34:10.234Z,6072
2019-03-05T11:35:15.116Z,10356
2019-03-05T11:36:17.253Z,15636
2019-03-05T11:37:19.426Z,23360
2019-03-05T11:38:21.527Z,17368
2019-03-05T11:39:23.648Z,20352
2019-03-05T11:40:25.774Z,18880
2019-03-05T11:41:27.886Z,15556
2019-03-05T11:42:30.735Z,15192
2019-03-05T11:43:32.856Z,12084
2019-03-05T11:44:34.974Z,13488
2019-03-05T11:45:37.409Z,14048
2019-03-05T11:46:39.829Z,15536
2019-03-05T11:47:41.934Z,18752
2019-03-05T11:48:44.086Z,14204
2019-03-05T11:49:46.211Z,9888
2019-03-05T11:50:48.329Z,11712
2019-03-05T11:51:53.297Z,14348
2019-03-05T11:52:55.419Z,8764
2019-03-05T11:53:57.539Z,8240
2019-03-05T11:54:59.671Z,16868
2019-03-05T11:56:02.073Z,94208
2019-03-05T11:57:04.212Z,21184
2019-03-05T11:58:06.397Z,36448
2019-03-05T11:59:08.912Z,87936
2019-03-05T12:00:11.065Z,29056
2019-03-05T12:01:13.199Z,88512
2019-03-05T12:02:21.622Z,93952
2019-03-05T12:03:24.116Z,42304
2019-03-05T12:04:26.275Z,81856
2019-03-05T12:05:28.418Z,58336
2019-03-05T12:06:30.545Z,27104
2019-03-05T12:07:32.677Z,25088
2019-03-05T12:08:34.781Z,33600
2019-03-05T12:09:37.212Z,32704
2019-03-05T12:10:39.334Z,42336
2019-03-05T12:11:41.444Z,30752
2019-03-05T12:12:43.573Z,39744
2019-03-05T12:13:45.706Z,29280
2019-03-05T12:14:47.828Z,37760
2019-03-05T12:15:49.964Z,19776
2019-03-05T12:16:52.092Z,27776
2019-03-05T12:17:54.208Z,27008
2019-03-05T12:18:56.323Z,18260
2019-03-05T12:19:58.474Z,15372
2019-03-05T12:21:00.577Z,12152
2019-03-05T12:22:02.698Z,7924
2019-03-05T12:23:06.551Z,7492
2019-03-05T12:24:13.628Z,15612
2019-03-05T12:25:15.766Z,51936
2019-03-05T12:26:17.894Z,22880
2019-03-05T12:27:20.016Z,21920
2019-03-05T12:28:22.121Z,21248
2019-03-05T12:29:24.254Z,34560
2019-03-05T12:30:26.397Z,24640
2019-03-05T12:31:28.527Z,25984
2019-03-05T12:32:30.962Z,24768
2019-03-05T12:33:33.063Z,36448
2019-03-05T12:34:35.541Z,78496
2019-03-05T12:35:38.073Z,21856
2019-03-05T12:36:40.516Z,31104
2019-03-05T12:37:42.904Z,26592
2019-03-05T12:38:46.219Z,37472
2019-03-05T12:39:48.567Z,25408
2019-03-05T12:40:50.973Z,28352
2019-03-05T12:41:53.111Z,46304
2019-03-05T12:42:55.513Z,25056
2019-03-05T12:43:57.633Z,21952
2019-03-05T12:45:00.043Z,21248
2019-03-05T12:46:02.322Z,18944
2019-03-05T12:47:04.436Z,17672
2019-03-05T12:48:06.853Z,10120
2019-03-05T12:49:08.970Z,13312
2019-03-05T12:50:11.112Z,17720
2019-03-05T12:51:13.249Z,16268
2019-03-05T12:52:15.370Z,9520
2019-03-05T12:53:17.489Z,7300
2019-03-05T12:54:19.627Z,8104
2019-03-05T12:55:21.758Z,9432
2019-03-05T12:56:24.438Z,14240
2019-03-05T12:57:26.891Z,18464
2019-03-05T12:58:28.996Z,13444
2019-03-05T12:59:31.116Z,9048
2019-03-05T13:00:33.236Z,9716
2019-03-05T13:01:35.654Z,9632
2019-03-05T13:02:37.773Z,13200
2019-03-05T13:03:39.908Z,17140
2019-03-05T13:04:42.041Z,14836
2019-03-05T13:05:44.532Z,16552
2019-03-05T13:06:46.648Z,21088
2019-03-05T13:07:52.437Z,24480
2019-03-05T13:08:59.538Z,23552
2019-03-05T13:10:02.598Z,17300
2019-03-05T13:11:04.808Z,19904
2019-03-05T13:12:15.409Z,20224
2019-03-05T13:13:17.528Z,18912
2019-03-05T13:14:19.924Z,11944
2019-03-05T13:15:22.057Z,8024
2019-03-05T13:16:24.175Z,7940
2019-03-05T13:17:26.339Z,8224
2019-03-05T13:18:30.862Z,8492
2019-03-05T13:19:34.386Z,11448
2019-03-05T13:20:36.500Z,10252
2019-03-05T13:21:38.928Z,10852
2019-03-05T13:22:45.173Z,10368
2019-03-05T13:23:47.566Z,10044
2019-03-05T13:24:52.952Z,10424
2019-03-05T13:25:55.077Z,9612
2019-03-05T13:26:57.189Z,10408
2019-03-05T13:28:01.904Z,9392
2019-03-05T13:29:06.194Z,7292
2019-03-05T13:30:10.330Z,8288
2019-03-05T13:31:12.966Z,7820
2019-03-05T13:32:16.754Z,7976
2019-03-05T13:33:23.603Z,5048
2019-03-05T13:34:25.717Z,4144
2019-03-05T13:35:30.211Z,4600
2019-03-05T13:36:34.488Z,3724
2019-03-05T13:37:36.644Z,4552
2019-03-05T13:38:41.650Z,3804
2019-03-05T13:39:48.120Z,3636
2019-03-05T13:40:50.255Z,4528
2019-03-05T13:41:53.754Z,5608
2019-03-05T13:42:56.966Z,4528
2019-03-05T13:43:59.081Z,5568
2019-03-05T13:45:01.216Z,8468
2019-03-05T13:46:12.152Z,6524
2019-03-05T13:47:14.297Z,9600
2019-03-05T13:48:19.180Z,12436
2019-03-05T13:49:25.798Z,16792
2019-03-05T13:50:27.913Z,24928
2019-03-05T13:51:30.318Z,43136
2019-03-05T13:52:35.922Z,40960
2019-03-05T13:53:39.779Z,15348
2019-03-05T13:54:43.773Z,15316
2019-03-05T13:55:51.472Z,16284
2019-03-05T13:56:53.587Z,12272
2019-03-05T13:57:56.063Z,10180
2019-03-05T13:58:58.253Z,9588
2019-03-05T14:00:00.385Z,8292
2019-03-05T14:01:02.514Z,8044
2019-03-05T14:02:04.679Z,7796
2019-03-05T14:03:07.179Z,5316
2019-03-05T14:04:09.295Z,4312
2019-03-05T14:05:11.428Z,4656
2019-03-05T14:06:13.536Z,6008
2019-03-05T14:07:15.745Z,5416
2019-03-05T14:08:17.861Z,5888
2019-03-05T14:09:20.059Z,6032
2019-03-05T14:10:22.747Z,4292
2019-03-05T14:11:27.902Z,3008
2019-03-05T14:12:30.104Z,2580
2019-03-05T14:13:32.665Z,2328
2019-03-05T14:14:35.520Z,2148
2019-03-05T14:15:37.742Z,2076
2019-03-05T14:16:39.953Z,2324
2019-03-05T14:17:42.239Z,2772
2019-03-05T14:18:44.604Z,2120
2019-03-05T14:19:46.745Z,1892